sensor_id;sensor_type;location;lat;lon;timestamp;pressure;altitude;pressure_sealevel;temperature;humidity
19114;BME280;9689;51.052;13.772;2022-12-07T00:04:59;100169.63;;;2.58;84.38
19114;BME280;9689;51.052;13.772;2022-12-07T00:10:01;100163.63;;;2.59;84.17
19114;BME280;9689;51.052;13.772;2022-12-07T00:15:03;100160.19;;;2.55;83.61
19114;BME280;9689;51.052;13.772;2022-12-07T00:20:05;100160.19;;;2.55;83.45
19114;BME280;9689;51.052;13.772;2022-12-07T00:25:08;100155.03;;;2.55;83.58
19114;BME280;9689;51.052;13.772;2022-12-07T00:30:09;100141.31;;;2.53;83.42
19114;BME280;9689;51.052;13.772;2022-12-07T00:35:10;100150.69;;;2.51;83.44
19114;BME280;9689;51.052;13.772;2022-12-07T00:40:12;100138.72;;;2.53;83.64
19114;BME280;9689;51.052;13.772;2022-12-07T00:45:13;100137.81;;;2.49;83.79
19114;BME280;9689;51.052;13.772;2022-12-07T00:50:14;100134.44;;;2.52;83.73
19114;BME280;9689;51.052;13.772;2022-12-07T00:55:17;100137.03;;;2.57;83.33
19114;BME280;9689;51.052;13.772;2022-12-07T01:00:18;100133.63;;;2.58;83.00
19114;BME280;9689;51.052;13.772;2022-12-07T01:05:19;100128.53;;;2.62;82.36
19114;BME280;9689;51.052;13.772;2022-12-07T01:10:21;100134.47;;;2.58;83.23
19114;BME280;9689;51.052;13.772;2022-12-07T01:15:22;100132.81;;;2.62;82.72
19114;BME280;9689;51.052;13.772;2022-12-07T01:20:23;100133.75;;;2.70;82.42
19114;BME280;9689;51.052;13.772;2022-12-07T01:25:25;100119.97;;;2.68;82.54
19114;BME280;9689;51.052;13.772;2022-12-07T01:30:26;100122.53;;;2.62;82.72
19114;BME280;9689;51.052;13.772;2022-12-07T01:35:27;100121.66;;;2.63;82.71
19114;BME280;9689;51.052;13.772;2022-12-07T01:40:29;100115.69;;;2.64;82.89
19114;BME280;9689;51.052;13.772;2022-12-07T01:45:39;100120.84;;;2.68;82.71
19114;BME280;9689;51.052;13.772;2022-12-07T01:50:42;100121.69;;;2.66;82.46
19114;BME280;9689;51.052;13.772;2022-12-07T01:55:47;100120.03;;;2.71;82.35
19114;BME280;9689;51.052;13.772;2022-12-07T02:00:50;100119.97;;;2.68;82.68
19114;BME280;9689;51.052;13.772;2022-12-07T02:05:51;100126.81;;;2.61;82.52
19114;BME280;9689;51.052;13.772;2022-12-07T02:10:54;100126.81;;;2.61;82.83
19114;BME280;9689;51.052;13.772;2022-12-07T02:16:08;100117.38;;;2.62;83.28
19114;BME280;9689;51.052;13.772;2022-12-07T02:21:18;100112.19;;;2.57;83.15
19114;BME280;9689;51.052;13.772;2022-12-07T02:26:41;100111.22;;;2.47;82.88
19114;BME280;9689;51.052;13.772;2022-12-07T02:31:55;100108.47;;;2.28;83.75
19114;BME280;9689;51.052;13.772;2022-12-07T02:37:01;100116.03;;;2.15;83.72
19114;BME280;9689;51.052;13.772;2022-12-07T02:42:15;100110.78;;;2.05;84.32
19114;BME280;9689;51.052;13.772;2022-12-07T02:47:21;100091.91;;;2.03;84.15
19114;BME280;9689;51.052;13.772;2022-12-07T02:52:24;100093.56;;;1.99;84.46
19114;BME280;9689;51.052;13.772;2022-12-07T02:57:34;100083.34;;;2.02;83.82
19114;BME280;9689;51.052;13.772;2022-12-07T03:02:50;100079.09;;;2.07;83.54
19114;BME280;9689;51.052;13.772;2022-12-07T03:07:59;100078.38;;;2.17;83.58
19114;BME280;9689;51.052;13.772;2022-12-07T03:13:05;100078.41;;;2.22;83.20
19114;BME280;9689;51.052;13.772;2022-12-07T03:18:10;100073.28;;;2.25;82.99
19114;BME280;9689;51.052;13.772;2022-12-07T03:23:15;100067.25;;;2.20;83.18
19114;BME280;9689;51.052;13.772;2022-12-07T03:28:19;100066.25;;;2.06;83.18
19114;BME280;9689;51.052;13.772;2022-12-07T03:33:27;100055.09;;;2.02;83.30
19114;BME280;9689;51.052;13.772;2022-12-07T03:38:33;100054.22;;;2.00;83.51
19114;BME280;9689;51.052;13.772;2022-12-07T03:43:35;100059.28;;;1.94;83.88
19114;BME280;9689;51.052;13.772;2022-12-07T03:48:41;100049.09;;;2.05;83.94
19114;BME280;9689;51.052;13.772;2022-12-07T03:53:50;100044.88;;;2.10;82.29
19114;BME280;9689;51.052;13.772;2022-12-07T03:58:54;100052.50;;;2.01;83.21
19114;BME280;9689;51.052;13.772;2022-12-07T04:03:56;100050.03;;;2.11;82.40
19114;BME280;9689;51.052;13.772;2022-12-07T04:08:57;100054.25;;;2.06;82.42
19114;BME280;9689;51.052;13.772;2022-12-07T04:13:58;100047.38;;;2.01;82.50
19114;BME280;9689;51.052;13.772;2022-12-07T04:19:19;100027.75;;;2.09;81.49
19114;BME280;9689;51.052;13.772;2022-12-07T04:24:21;100030.19;;;1.98;82.01
19114;BME280;9689;51.052;13.772;2022-12-07T04:29:22;100028.44;;;1.95;81.14
19114;BME280;9689;51.052;13.772;2022-12-07T04:34:24;100022.38;;;1.86;81.45
19114;BME280;9689;51.052;13.772;2022-12-07T04:39:27;100008.56;;;1.76;82.00
19114;BME280;9689;51.052;13.772;2022-12-07T04:44:29;99998.28;;;1.76;81.89
19114;BME280;9689;51.052;13.772;2022-12-07T04:49:31;99983.69;;;1.74;81.94
19114;BME280;9689;51.052;13.772;2022-12-07T04:54:32;99982.78;;;1.68;82.53
19114;BME280;9689;51.052;13.772;2022-12-07T04:59:33;99988.63;;;1.55;82.73
19114;BME280;9689;51.052;13.772;2022-12-07T05:04:36;99981.84;;;1.60;83.08
19114;BME280;9689;51.052;13.772;2022-12-07T05:09:37;99974.16;;;1.62;82.80
19114;BME280;9689;51.052;13.772;2022-12-07T05:14:38;99965.50;;;1.54;83.06
19114;BME280;9689;51.052;13.772;2022-12-07T05:19:40;99966.38;;;1.56;83.26
19114;BME280;9689;51.052;13.772;2022-12-07T05:24:41;99973.34;;;1.66;82.18
19114;BME280;9689;51.052;13.772;2022-12-07T05:29:41;99969.00;;;1.59;82.52
19114;BME280;9689;51.052;13.772;2022-12-07T05:34:44;99971.78;;;1.82;81.79
19114;BME280;9689;51.052;13.772;2022-12-07T05:39:45;99962.56;;;2.02;79.76
19114;BME280;9689;51.052;13.772;2022-12-07T05:44:46;99957.44;;;2.04;80.39
19114;BME280;9689;51.052;13.772;2022-12-07T05:49:48;99953.94;;;1.97;81.10
19114;BME280;9689;51.052;13.772;2022-12-07T05:54:49;99941.94;;;1.93;80.86
19114;BME280;9689;51.052;13.772;2022-12-07T05:59:50;99941.09;;;1.97;81.28
19114;BME280;9689;51.052;13.772;2022-12-07T06:04:52;99928.34;;;2.08;80.43
19114;BME280;9689;51.052;13.772;2022-12-07T06:09:53;99930.97;;;2.17;79.01
19114;BME280;9689;51.052;13.772;2022-12-07T06:14:54;99931.94;;;2.26;78.33
19114;BME280;9689;51.052;13.772;2022-12-07T06:19:56;99919.19;;;2.43;76.97
19114;BME280;9689;51.052;13.772;2022-12-07T06:24:57;99920.00;;;2.39;76.66
19114;BME280;9689;51.052;13.772;2022-12-07T06:30:05;99917.44;;;2.42;76.86
19114;BME280;9689;51.052;13.772;2022-12-07T06:35:09;99912.41;;;2.56;76.25
19114;BME280;9689;51.052;13.772;2022-12-07T06:40:10;99923.59;;;2.61;76.26
19114;BME280;9689;51.052;13.772;2022-12-07T06:45:11;99919.34;;;2.71;76.79
19114;BME280;9689;51.052;13.772;2022-12-07T06:50:13;99927.03;;;2.68;76.89
19114;BME280;9689;51.052;13.772;2022-12-07T06:55:14;99920.25;;;2.80;77.33
19114;BME280;9689;51.052;13.772;2022-12-07T07:00:16;99921.88;;;2.66;78.48
19114;BME280;9689;51.052;13.772;2022-12-07T07:05:22;99920.22;;;2.71;79.16
19114;BME280;9689;51.052;13.772;2022-12-07T07:10:23;99917.59;;;2.65;80.47
19114;BME280;9689;51.052;13.772;2022-12-07T07:15:24;99919.19;;;2.45;83.43
19114;BME280;9689;51.052;13.772;2022-12-07T07:20:26;99920.00;;;2.38;83.63
19114;BME280;9689;51.052;13.772;2022-12-07T07:25:27;99934.53;;;2.31;83.90
19114;BME280;9689;51.052;13.772;2022-12-07T07:30:28;99937.00;;;2.17;85.25
19114;BME280;9689;51.052;13.772;2022-12-07T07:35:32;99931.88;;;2.17;85.96
19114;BME280;9689;51.052;13.772;2022-12-07T07:40:34;99945.59;;;2.19;86.77
19114;BME280;9689;51.052;13.772;2022-12-07T07:45:35;99936.16;;;2.23;86.30
19114;BME280;9689;51.052;13.772;2022-12-07T07:50:37;99940.50;;;2.27;86.04
19114;BME280;9689;51.052;13.772;2022-12-07T07:55:38;99947.38;;;2.33;86.19
19114;BME280;9689;51.052;13.772;2022-12-07T08:00:39;99936.38;;;2.50;84.82
19114;BME280;9689;51.052;13.772;2022-12-07T08:05:41;99949.28;;;2.58;84.65
19114;BME280;9689;51.052;13.772;2022-12-07T08:10:42;99946.81;;;2.72;83.85
19114;BME280;9689;51.052;13.772;2022-12-07T08:15:44;99944.22;;;2.73;83.97
19114;BME280;9689;51.052;13.772;2022-12-07T08:20:47;99943.44;;;2.82;84.00
19114;BME280;9689;51.052;13.772;2022-12-07T08:25:48;99933.19;;;2.93;82.94
19114;BME280;9689;51.052;13.772;2022-12-07T08:30:49;99941.78;;;2.96;83.01
19114;BME280;9689;51.052;13.772;2022-12-07T08:35:51;99926.34;;;3.02;82.47
19114;BME280;9689;51.052;13.772;2022-12-07T08:40:53;99940.13;;;3.07;82.32
19114;BME280;9689;51.052;13.772;2022-12-07T08:46:03;99928.19;;;3.22;81.80
19114;BME280;9689;51.052;13.772;2022-12-07T08:51:08;99941.09;;;3.34;80.87
19114;BME280;9689;51.052;13.772;2022-12-07T08:56:09;99941.13;;;3.55;79.97
19114;BME280;9689;51.052;13.772;2022-12-07T09:01:10;99947.16;;;3.53;79.50
19114;BME280;9689;51.052;13.772;2022-12-07T09:06:12;99951.47;;;3.63;79.53
19114;BME280;9689;51.052;13.772;2022-12-07T09:11:13;99940.34;;;3.78;79.13
19114;BME280;9689;51.052;13.772;2022-12-07T09:16:14;99935.16;;;3.73;79.25
19114;BME280;9689;51.052;13.772;2022-12-07T09:21:16;99947.25;;;4.00;77.91
19114;BME280;9689;51.052;13.772;2022-12-07T09:26:17;99944.66;;;4.14;77.05
19114;BME280;9689;51.052;13.772;2022-12-07T09:31:18;99939.50;;;4.12;76.45
19114;BME280;9689;51.052;13.772;2022-12-07T09:36:25;99942.09;;;4.12;76.71
19114;BME280;9689;51.052;13.772;2022-12-07T09:41:27;99945.53;;;4.17;75.78
19114;BME280;9689;51.052;13.772;2022-12-07T09:46:30;99948.09;;;4.25;74.97
19114;BME280;9689;51.052;13.772;2022-12-07T09:51:36;99922.28;;;4.40;74.73
19114;BME280;9689;51.052;13.772;2022-12-07T09:56:37;99933.47;;;4.54;74.29
19114;BME280;9689;51.052;13.772;2022-12-07T10:01:39;99936.00;;;4.74;73.04
19114;BME280;9689;51.052;13.772;2022-12-07T10:06:41;99920.56;;;4.61;73.52
19114;BME280;9689;51.052;13.772;2022-12-07T10:11:59;99918.78;;;4.75;73.14
19114;BME280;9689;51.052;13.772;2022-12-07T10:17:00;99914.50;;;4.71;73.91
19114;BME280;9689;51.052;13.772;2022-12-07T10:22:10;99903.19;;;5.02;72.77
19114;BME280;9689;51.052;13.772;2022-12-07T10:27:19;99900.63;;;4.99;71.70
19114;BME280;9689;51.052;13.772;2022-12-07T10:32:31;99905.75;;;5.08;71.92
19114;BME280;9689;51.052;13.772;2022-12-07T10:37:40;99904.06;;;5.03;72.41
19114;BME280;9689;51.052;13.772;2022-12-07T10:42:41;99890.38;;;4.82;72.88
19114;BME280;9689;51.052;13.772;2022-12-07T10:47:44;99903.31;;;4.69;74.18
19114;BME280;9689;51.052;13.772;2022-12-07T10:53:07;99898.16;;;4.60;73.98
19114;BME280;9689;51.052;13.772;2022-12-07T10:58:34;99893.88;;;4.63;75.03
19114;BME280;9689;51.052;13.772;2022-12-07T11:03:51;99899.03;;;4.57;75.26
19114;BME280;9689;51.052;13.772;2022-12-07T11:14:56;99876.66;;;4.65;75.66
19114;BME280;9689;51.052;13.772;2022-12-07T11:20:06;99869.72;;;4.76;75.46
19114;BME280;9689;51.052;13.772;2022-12-07T11:25:23;99868.88;;;4.79;74.34
19114;BME280;9689;51.052;13.772;2022-12-07T11:30:34;99865.47;;;4.68;75.32
19114;BME280;9689;51.052;13.772;2022-12-07T11:35:45;99864.63;;;4.58;75.29
19114;BME280;9689;51.052;13.772;2022-12-07T11:40:51;99872.44;;;4.31;78.91
19114;BME280;9689;51.052;13.772;2022-12-07T11:46:02;99879.31;;;3.81;81.50
19114;BME280;9689;51.052;13.772;2022-12-07T11:51:07;99875.03;;;3.69;82.32
19114;BME280;9689;51.052;13.772;2022-12-07T11:56:12;99865.56;;;3.73;82.87
19114;BME280;9689;51.052;13.772;2022-12-07T12:01:26;99866.47;;;3.75;83.03
19114;BME280;9689;51.052;13.772;2022-12-07T12:06:29;99874.19;;;3.78;83.05
19114;BME280;9689;51.052;13.772;2022-12-07T12:11:42;99857.84;;;3.79;84.06
19114;BME280;9689;51.052;13.772;2022-12-07T12:17:02;99841.53;;;3.98;84.32
19114;BME280;9689;51.052;13.772;2022-12-07T12:22:13;99849.25;;;4.15;83.53
19114;BME280;9689;51.052;13.772;2022-12-07T12:27:21;99854.41;;;4.11;84.38
19114;BME280;9689;51.052;13.772;2022-12-07T12:32:35;99851.84;;;4.11;84.06
19114;BME280;9689;51.052;13.772;2022-12-07T12:37:44;99853.53;;;4.15;83.00
19114;BME280;9689;51.052;13.772;2022-12-07T12:42:47;99850.09;;;4.20;82.41
19114;BME280;9689;51.052;13.772;2022-12-07T12:47:54;99847.53;;;4.07;79.75
19114;BME280;9689;51.052;13.772;2022-12-07T12:53:05;99850.13;;;3.88;79.37
19114;BME280;9689;51.052;13.772;2022-12-07T12:58:34;99842.38;;;3.81;78.88
19114;BME280;9689;51.052;13.772;2022-12-07T13:03:37;99861.28;;;3.48;80.93
19114;BME280;9689;51.052;13.772;2022-12-07T13:08:40;99856.88;;;3.08;84.00
19114;BME280;9689;51.052;13.772;2022-12-07T13:13:42;99855.97;;;2.88;84.83
19114;BME280;9689;51.052;13.772;2022-12-07T13:18:44;99864.53;;;2.81;85.08
19114;BME280;9689;51.052;13.772;2022-12-07T13:23:55;99860.16;;;2.62;85.83
19114;BME280;9689;51.052;13.772;2022-12-07T13:29:09;99872.13;;;2.58;86.10
19114;BME280;9689;51.052;13.772;2022-12-07T13:34:32;99869.47;;;2.44;87.10
19114;BME280;9689;51.052;13.772;2022-12-07T13:39:34;99856.53;;;2.29;88.16
19114;BME280;9689;51.052;13.772;2022-12-07T13:44:40;99854.81;;;2.34;88.41
19114;BME280;9689;51.052;13.772;2022-12-07T13:49:49;99857.44;;;2.36;88.55
19114;BME280;9689;51.052;13.772;2022-12-07T13:54:56;99849.72;;;2.39;88.52
19114;BME280;9689;51.052;13.772;2022-12-07T13:59:58;99859.22;;;2.47;88.81
19114;BME280;9689;51.052;13.772;2022-12-07T14:05:09;99854.97;;;2.59;87.98
19114;BME280;9689;51.052;13.772;2022-12-07T14:10:23;99858.47;;;2.74;87.19
19114;BME280;9689;51.052;13.772;2022-12-07T14:15:27;99850.78;;;2.82;87.14
19114;BME280;9689;51.052;13.772;2022-12-07T14:20:35;99864.56;;;2.92;86.87
19114;BME280;9689;51.052;13.772;2022-12-07T14:25:45;99850.84;;;2.99;87.54
19114;BME280;9689;51.052;13.772;2022-12-07T14:30:50;99848.31;;;3.06;86.32
19114;BME280;9689;51.052;13.772;2022-12-07T14:35:52;99847.44;;;3.09;86.62
19114;BME280;9689;51.052;13.772;2022-12-07T14:40:54;99843.16;;;3.06;86.34
19114;BME280;9689;51.052;13.772;2022-12-07T14:46:16;99835.44;;;3.12;87.02
19114;BME280;9689;51.052;13.772;2022-12-07T14:51:18;99838.91;;;3.27;86.70
19114;BME280;9689;51.052;13.772;2022-12-07T14:56:49;99820.09;;;3.74;88.45
19114;BME280;9689;51.052;13.772;2022-12-07T15:01:51;99842.38;;;3.47;88.20
19114;BME280;9689;51.052;13.772;2022-12-07T15:06:57;99837.22;;;3.41;87.98
19114;BME280;9689;51.052;13.772;2022-12-07T15:11:58;99835.50;;;3.38;86.04
19114;BME280;9689;51.052;13.772;2022-12-07T15:17:02;99838.94;;;3.54;83.18
19114;BME280;9689;51.052;13.772;2022-12-07T15:22:12;99837.25;;;3.49;83.29
19114;BME280;9689;51.052;13.772;2022-12-07T15:27:14;99835.50;;;3.63;82.00
19114;BME280;9689;51.052;13.772;2022-12-07T15:32:14;99841.53;;;3.68;80.74
19114;BME280;9689;51.052;13.772;2022-12-07T15:37:17;99832.97;;;3.66;80.90
19114;BME280;9689;51.052;13.772;2022-12-07T15:42:19;99838.97;;;3.71;80.01
19114;BME280;9689;51.052;13.772;2022-12-07T15:47:22;99852.72;;;3.75;79.62
19114;BME280;9689;51.052;13.772;2022-12-07T15:52:25;99834.66;;;3.62;80.92
19114;BME280;9689;51.052;13.772;2022-12-07T15:57:26;99843.25;;;3.54;82.19
19114;BME280;9689;51.052;13.772;2022-12-07T16:02:27;99837.22;;;3.53;82.56
19114;BME280;9689;51.052;13.772;2022-12-07T16:07:29;99841.53;;;3.54;81.27
19114;BME280;9689;51.052;13.772;2022-12-07T16:12:29;99847.53;;;3.55;80.70
19114;BME280;9689;51.052;13.772;2022-12-07T16:17:30;99852.72;;;3.56;81.07
19114;BME280;9689;51.052;13.772;2022-12-07T16:22:33;99850.13;;;3.56;81.22
19114;BME280;9689;51.052;13.772;2022-12-07T16:27:34;99842.38;;;3.52;81.44
19114;BME280;9689;51.052;13.772;2022-12-07T16:32:35;99847.53;;;3.49;81.63
19114;BME280;9689;51.052;13.772;2022-12-07T16:37:37;99853.50;;;3.38;81.75
19114;BME280;9689;51.052;13.772;2022-12-07T16:42:38;99850.09;;;3.43;81.16
19114;BME280;9689;51.052;13.772;2022-12-07T16:47:39;99839.78;;;3.38;81.21
19114;BME280;9689;51.052;13.772;2022-12-07T16:52:42;99847.53;;;3.41;80.14
19114;BME280;9689;51.052;13.772;2022-12-07T16:57:42;99856.97;;;3.47;78.92
19114;BME280;9689;51.052;13.772;2022-12-07T17:02:43;99850.97;;;3.60;78.40
19114;BME280;9689;51.052;13.772;2022-12-07T17:07:46;99850.13;;;3.61;77.97
19114;BME280;9689;51.052;13.772;2022-12-07T17:12:47;99844.09;;;3.50;78.66
19114;BME280;9689;51.052;13.772;2022-12-07T17:17:52;99845.81;;;3.55;78.49
19114;BME280;9689;51.052;13.772;2022-12-07T17:22:55;99851.84;;;3.50;77.65
19114;BME280;9689;51.052;13.772;2022-12-07T17:27:55;99853.56;;;3.52;78.17
19114;BME280;9689;51.052;13.772;2022-12-07T17:32:56;99850.97;;;3.54;78.15
19114;BME280;9689;51.052;13.772;2022-12-07T17:37:58;99850.97;;;3.51;78.15
19114;BME280;9689;51.052;13.772;2022-12-07T17:42:59;99842.41;;;3.58;78.21
19114;BME280;9689;51.052;13.772;2022-12-07T17:48:00;99851.00;;;3.57;78.48
19114;BME280;9689;51.052;13.772;2022-12-07T17:53:03;99849.25;;;3.56;79.15
19114;BME280;9689;51.052;13.772;2022-12-07T17:58:09;99857.84;;;3.61;78.86
19114;BME280;9689;51.052;13.772;2022-12-07T18:03:10;99850.13;;;3.59;79.50
19114;BME280;9689;51.052;13.772;2022-12-07T18:08:13;99848.41;;;3.58;79.31
19114;BME280;9689;51.052;13.772;2022-12-07T18:13:14;99851.84;;;3.65;78.46
19114;BME280;9689;51.052;13.772;2022-12-07T18:18:33;99857.88;;;3.65;78.73
19114;BME280;9689;51.052;13.772;2022-12-07T18:23:35;99862.16;;;3.57;78.57
19114;BME280;9689;51.052;13.772;2022-12-07T18:28:36;99868.97;;;3.32;79.84
19114;BME280;9689;51.052;13.772;2022-12-07T18:33:36;99862.91;;;3.20;79.41
19114;BME280;9689;51.052;13.772;2022-12-07T18:38:39;99861.19;;;3.08;79.99
19114;BME280;9689;51.052;13.772;2022-12-07T18:43:40;99874.94;;;3.13;79.67
19114;BME280;9689;51.052;13.772;2022-12-07T18:48:42;99867.16;;;3.01;80.18
19114;BME280;9689;51.052;13.772;2022-12-07T18:53:44;99864.59;;;3.04;80.00
19114;BME280;9689;51.052;13.772;2022-12-07T18:58:49;99864.63;;;3.08;78.57
19114;BME280;9689;51.052;13.772;2022-12-07T19:04:04;99860.28;;;3.03;78.72
19114;BME280;9689;51.052;13.772;2022-12-07T19:09:06;99865.41;;;2.95;78.87
19114;BME280;9689;51.052;13.772;2022-12-07T19:14:07;99863.72;;;2.96;78.67
19114;BME280;9689;51.052;13.772;2022-12-07T19:19:08;99861.94;;;2.81;79.76
19114;BME280;9689;51.052;13.772;2022-12-07T19:24:11;99856.78;;;2.84;79.51
19114;BME280;9689;51.052;13.772;2022-12-07T19:29:20;99854.22;;;2.84;80.12
19114;BME280;9689;51.052;13.772;2022-12-07T19:34:20;99855.94;;;2.82;80.26
19114;BME280;9689;51.052;13.772;2022-12-07T19:39:23;99858.53;;;2.90;80.03
19114;BME280;9689;51.052;13.772;2022-12-07T19:44:26;99854.22;;;2.84;80.23
19114;BME280;9689;51.052;13.772;2022-12-07T19:49:30;99855.13;;;2.95;80.28
19114;BME280;9689;51.052;13.772;2022-12-07T19:54:33;99851.72;;;3.01;79.95
19114;BME280;9689;51.052;13.772;2022-12-07T19:59:34;99857.75;;;3.12;79.70
19114;BME280;9689;51.052;13.772;2022-12-07T20:04:35;99856.06;;;3.16;79.07
19114;BME280;9689;51.052;13.772;2022-12-07T20:09:37;99846.59;;;3.11;79.42
19114;BME280;9689;51.052;13.772;2022-12-07T20:14:38;99844.91;;;3.26;78.42
19114;BME280;9689;51.052;13.772;2022-12-07T20:19:39;99838.91;;;3.24;78.24
19114;BME280;9689;51.052;13.772;2022-12-07T20:24:42;99834.63;;;3.23;78.70
19114;BME280;9689;51.052;13.772;2022-12-07T20:29:42;99838.06;;;3.23;78.22
19114;BME280;9689;51.052;13.772;2022-12-07T20:34:43;99846.63;;;3.18;79.20
19114;BME280;9689;51.052;13.772;2022-12-07T20:39:46;99842.31;;;3.20;78.49
19114;BME280;9689;51.052;13.772;2022-12-07T20:44:47;99829.47;;;3.23;78.56
19114;BME280;9689;51.052;13.772;2022-12-07T20:49:48;99828.63;;;3.22;78.35
19114;BME280;9689;51.052;13.772;2022-12-07T20:54:50;99821.72;;;3.14;78.42
19114;BME280;9689;51.052;13.772;2022-12-07T20:59:51;99833.69;;;3.01;79.38
19114;BME280;9689;51.052;13.772;2022-12-07T21:04:52;99827.72;;;3.06;78.57
19114;BME280;9689;51.052;13.772;2022-12-07T21:09:54;99826.84;;;3.07;78.53
19114;BME280;9689;51.052;13.772;2022-12-07T21:14:55;99831.16;;;3.05;78.50
19114;BME280;9689;51.052;13.772;2022-12-07T21:19:56;99829.44;;;3.09;78.24
19114;BME280;9689;51.052;13.772;2022-12-07T21:24:58;99833.72;;;3.08;78.15
19114;BME280;9689;51.052;13.772;2022-12-07T21:29:59;99835.44;;;3.08;78.05
19114;BME280;9689;51.052;13.772;2022-12-07T21:34:59;99831.97;;;3.01;78.38
19114;BME280;9689;51.052;13.772;2022-12-07T21:40:03;99836.28;;;2.98;78.49
19114;BME280;9689;51.052;13.772;2022-12-07T21:45:04;99825.97;;;2.98;78.51
19114;BME280;9689;51.052;13.772;2022-12-07T21:50:06;99832.00;;;3.07;78.28
19114;BME280;9689;51.052;13.772;2022-12-07T21:55:09;99813.97;;;3.12;77.95
19114;BME280;9689;51.052;13.772;2022-12-07T22:00:11;99818.28;;;3.08;78.01
19114;BME280;9689;51.052;13.772;2022-12-07T22:05:12;99813.16;;;3.16;77.82
19114;BME280;9689;51.052;13.772;2022-12-07T22:10:14;99811.44;;;3.17;77.62
19114;BME280;9689;51.052;13.772;2022-12-07T22:15:27;99820.91;;;3.22;77.67
19114;BME280;9689;51.052;13.772;2022-12-07T22:20:28;99833.75;;;3.27;77.07
19114;BME280;9689;51.052;13.772;2022-12-07T22:25:30;99818.31;;;3.27;76.99
19114;BME280;9689;51.052;13.772;2022-12-07T22:30:31;99818.28;;;3.21;77.30
19114;BME280;9689;51.052;13.772;2022-12-07T22:35:32;99812.31;;;3.32;76.78
19114;BME280;9689;51.052;13.772;2022-12-07T22:40:34;99820.03;;;3.26;77.00
19114;BME280;9689;51.052;13.772;2022-12-07T22:45:35;99808.88;;;3.33;76.70
19114;BME280;9689;51.052;13.772;2022-12-07T22:50:37;99796.00;;;3.44;76.03
19114;BME280;9689;51.052;13.772;2022-12-07T22:55:40;99799.47;;;3.49;75.74
19114;BME280;9689;51.052;13.772;2022-12-07T23:00:41;99799.44;;;3.52;75.64
19114;BME280;9689;51.052;13.772;2022-12-07T23:05:42;99790.84;;;3.55;75.91
19114;BME280;9689;51.052;13.772;2022-12-07T23:10:46;99789.16;;;3.54;76.08
19114;BME280;9689;51.052;13.772;2022-12-07T23:15:47;99798.59;;;3.49;75.81
19114;BME280;9689;51.052;13.772;2022-12-07T23:20:48;99786.56;;;3.52;75.52
19114;BME280;9689;51.052;13.772;2022-12-07T23:25:51;99796.00;;;3.47;75.85
19114;BME280;9689;51.052;13.772;2022-12-07T23:30:52;99783.13;;;3.43;75.88
19114;BME280;9689;51.052;13.772;2022-12-07T23:35:53;99790.88;;;3.43;76.13
19114;BME280;9689;51.052;13.772;2022-12-07T23:40:55;99784.88;;;3.48;76.05
19114;BME280;9689;51.052;13.772;2022-12-07T23:45:55;99783.13;;;3.44;76.23
19114;BME280;9689;51.052;13.772;2022-12-07T23:50:57;99766.84;;;3.50;75.40
19114;BME280;9689;51.052;13.772;2022-12-07T23:55:59;99764.25;;;3.36;75.91
